Terminal Aerodrome Forecast
Issued by NWS

Home | Current Version | Previous Version | Text Only | Print | Product List | Glossary On
Versions: 1 2 3 4 5 6 7 8 9 10 11 12 13 14 15 16
000
FTUS43 KIWX 152332
TAFSBN
TAF
KSBN 152332Z 1600/1624 24009KT P6SM -SHSN OVC025
     FM160200 24009KT P6SM VCSH OVC035
     FM161000 21007KT P6SM OVC050
     FM162000 20007KT P6SM FEW250=

USA.gov is the U.S. government's official web portal to all federal, state and local government web resources and services.